createdAt,value
2022-07-29T00:01:48.300Z,56.79
2022-07-29T00:04:17.614Z,56.63
2022-07-29T00:06:46.327Z,56.85
2022-07-29T00:09:14.878Z,56.96
2022-07-29T00:11:43.357Z,57.31
2022-07-29T00:14:13.657Z,57.93
2022-07-29T00:16:42.486Z,57.85
2022-07-29T00:19:10.999Z,58.05
2022-07-29T00:21:39.469Z,58.20
2022-07-29T00:24:08.281Z,58.42
2022-07-29T00:26:36.785Z,58.35
2022-07-29T00:29:33.178Z,58.54
2022-07-29T00:31:56.264Z,59.06
2022-07-29T00:34:38.602Z,59.34
2022-07-29T00:37:07.921Z,59.73
2022-07-29T00:39:36.572Z,59.81
2022-07-29T00:42:05.800Z,59.65
2022-07-29T00:44:39.094Z,60.06
2022-07-29T00:47:09.405Z,60.45
2022-07-29T00:49:38.161Z,60.57
2022-07-29T00:52:08.062Z,61.09
2022-07-29T00:54:44.182Z,61.52
2022-07-29T00:57:14.441Z,61.21
2022-07-29T00:59:42.917Z,61.38
2022-07-29T01:02:13.064Z,61.49
2022-07-29T01:04:42.975Z,61.48
2022-07-29T01:07:12.643Z,61.58
2022-07-29T01:09:46.048Z,61.54
2022-07-29T01:12:18.878Z,61.27
2022-07-29T01:14:48.445Z,61.14
2022-07-29T01:17:23.068Z,61.28
2022-07-29T01:19:58.103Z,61.71
2022-07-29T01:22:39.033Z,61.99
2022-07-29T01:25:34.708Z,61.93
2022-07-29T01:28:17.190Z,62.25
2022-07-29T01:30:48.911Z,62.14
2022-07-29T01:33:36.980Z,62.06
2022-07-29T01:36:12.972Z,62.36
2022-07-29T01:38:44.959Z,62.59
2022-07-29T01:41:18.699Z,62.89
2022-07-29T01:43:53.824Z,62.73
2022-07-29T01:46:30.322Z,62.65
2022-07-29T01:49:02.582Z,62.80
2022-07-29T01:51:36.127Z,62.93
2022-07-29T01:54:08.926Z,63.03
2022-07-29T01:56:40.103Z,63.14
2022-07-29T01:59:11.433Z,63.21
2022-07-29T02:01:44.896Z,63.17
2022-07-29T02:04:28.850Z,63.45
2022-07-29T02:07:05.728Z,63.05
2022-07-29T02:09:37.691Z,63.20
2022-07-29T02:12:07.976Z,63.51
2022-07-29T02:14:46.842Z,63.53
2022-07-29T02:17:23.093Z,63.69
2022-07-29T02:19:52.142Z,63.80
2022-07-29T02:22:22.085Z,64.03
2022-07-29T02:24:52.657Z,64.09
2022-07-29T02:27:24.514Z,64.30
2022-07-29T02:29:54.421Z,63.96
2022-07-29T02:32:26.618Z,63.69
2022-07-29T02:34:56.494Z,63.99
2022-07-29T02:37:26.263Z,64.24
2022-07-29T02:39:57.194Z,64.33
2022-07-29T02:42:28.649Z,64.58
2022-07-29T02:44:57.372Z,64.70
2022-07-29T02:47:41.411Z,64.70
2022-07-29T02:50:14.967Z,65.01
2022-07-29T02:52:46.542Z,64.64
2022-07-29T02:55:21.237Z,64.70
2022-07-29T02:57:57.012Z,64.69
2022-07-29T03:00:29.133Z,64.85
2022-07-29T03:03:01.887Z,64.92
2022-07-29T03:05:31.183Z,65.07
2022-07-29T03:08:02.965Z,64.83
2022-07-29T03:10:32.470Z,64.65
2022-07-29T03:13:02.668Z,65.04
2022-07-29T03:15:31.923Z,64.90
2022-07-29T03:18:02.560Z,64.92
2022-07-29T03:20:31.240Z,65.14
2022-07-29T03:22:59.789Z,64.95
2022-07-29T03:25:28.382Z,65.22
2022-07-29T03:27:57.452Z,65.28
2022-07-29T03:30:26.315Z,65.08
2022-07-29T03:32:56.629Z,65.20
2022-07-29T03:35:29.266Z,65.13
2022-07-29T03:37:57.749Z,65.22
2022-07-29T03:40:33.085Z,65.43
2022-07-29T03:43:04.158Z,65.44
2022-07-29T03:45:34.927Z,65.48
2022-07-29T03:48:07.667Z,65.39
2022-07-29T03:50:38.339Z,65.40
2022-07-29T03:53:06.842Z,65.46
2022-07-29T03:55:42.359Z,65.09
2022-07-29T03:58:13.070Z,64.55
2022-07-29T04:00:42.613Z,64.60
2022-07-29T04:03:12.181Z,65.01
2022-07-29T04:05:45.629Z,64.29
2022-07-29T04:08:14.100Z,64.34
2022-07-29T04:10:42.583Z,64.57
2022-07-29T04:13:11.016Z,64.75
2022-07-29T04:15:39.468Z,64.49
2022-07-29T04:18:07.953Z,64.08
2022-07-29T04:20:36.504Z,63.95
2022-07-29T04:23:06.322Z,63.79
2022-07-29T04:25:34.817Z,63.72
2022-07-29T04:28:03.276Z,63.64
2022-07-29T04:30:32.780Z,63.58
2022-07-29T04:33:01.849Z,63.49
2022-07-29T04:35:30.557Z,63.54
2022-07-29T04:38:15.855Z,63.81
2022-07-29T04:40:45.678Z,63.68
2022-07-29T04:43:16.898Z,64.41
2022-07-29T04:45:51.488Z,64.13
2022-07-29T04:48:22.909Z,64.26
2022-07-29T04:50:55.217Z,64.52
2022-07-29T04:53:25.077Z,64.00
2022-07-29T04:55:53.565Z,63.80
2022-07-29T04:58:24.221Z,63.64
2022-07-29T05:00:53.180Z,63.59
2022-07-29T05:03:21.794Z,64.16
2022-07-29T05:05:50.491Z,64.25
2022-07-29T05:08:18.901Z,63.50
2022-07-29T05:10:48.931Z,63.25
2022-07-29T05:13:17.385Z,63.16
2022-07-29T05:15:45.955Z,62.87
2022-07-29T05:18:15.090Z,62.78
2022-07-29T05:20:43.669Z,62.33
2022-07-29T05:23:13.858Z,62.09
2022-07-29T05:25:43.990Z,62.32
2022-07-29T05:28:14.704Z,61.99
2022-07-29T05:30:43.581Z,62.14
2022-07-29T05:33:35.632Z,61.84
2022-07-29T05:36:01.308Z,61.46
2022-07-29T05:38:30.046Z,61.52
2022-07-29T05:40:59.726Z,62.02
2022-07-29T05:43:29.900Z,61.87
2022-07-29T05:45:58.826Z,62.14
2022-07-29T05:48:27.477Z,62.22
2022-07-29T05:50:56.114Z,62.29
2022-07-29T05:53:24.664Z,62.27
2022-07-29T05:55:53.163Z,62.01
2022-07-29T05:58:21.609Z,62.26
2022-07-29T06:00:51.568Z,62.17
2022-07-29T06:03:20.141Z,61.59
2022-07-29T06:05:48.545Z,61.09
2022-07-29T06:08:16.998Z,61.17
2022-07-29T06:10:46.505Z,60.88
2022-07-29T06:13:16.882Z,60.94
2022-07-29T06:15:45.552Z,60.65
2022-07-29T06:18:15.721Z,60.10
2022-07-29T06:20:44.203Z,60.26
2022-07-29T06:23:12.684Z,60.19
2022-07-29T06:25:42.270Z,59.45
2022-07-29T06:28:10.709Z,59.28
2022-07-29T06:30:39.302Z,59.06
2022-07-29T06:33:07.885Z,58.52
2022-07-29T06:35:42.407Z,58.38
2022-07-29T06:38:30.668Z,57.61
2022-07-29T06:41:04.805Z,58.29
2022-07-29T06:43:50.509Z,57.87
2022-07-29T06:46:21.924Z,57.08
2022-07-29T06:48:51.158Z,57.26
2022-07-29T06:51:23.192Z,57.19
2022-07-29T06:54:00.514Z,56.75
2022-07-29T06:56:39.073Z,57.24
2022-07-29T06:59:09.526Z,56.93
2022-07-29T07:01:39.059Z,56.35
2022-07-29T07:04:09.604Z,56.49
2022-07-29T07:06:39.865Z,56.25
2022-07-29T07:09:08.427Z,56.26
2022-07-29T07:11:36.915Z,56.29
2022-07-29T07:14:05.434Z,56.53
2022-07-29T07:16:34.428Z,55.92
2022-07-29T07:19:02.952Z,55.64
2022-07-29T07:21:31.601Z,55.72
2022-07-29T07:24:01.986Z,54.43
2022-07-29T07:26:30.472Z,54.73
2022-07-29T07:28:58.981Z,54.95
2022-07-29T07:31:27.532Z,54.57
2022-07-29T07:33:56.077Z,54.24
2022-07-29T07:36:24.931Z,54.52
2022-07-29T07:38:53.388Z,54.42
2022-07-29T07:41:24.002Z,54.09
2022-07-29T07:43:52.429Z,54.05
2022-07-29T07:46:21.080Z,53.81
2022-07-29T07:48:49.593Z,54.02
2022-07-29T07:51:18.085Z,53.99
2022-07-29T07:53:50.418Z,54.15
2022-07-29T07:56:19.041Z,53.18
2022-07-29T07:58:48.833Z,52.77
2022-07-29T08:01:20.109Z,52.70
2022-07-29T08:03:48.772Z,51.89
2022-07-29T08:06:17.706Z,51.62
2022-07-29T08:08:46.186Z,51.24
2022-07-29T08:11:15.520Z,51.62
2022-07-29T08:13:44.187Z,51.62
2022-07-29T08:16:14.377Z,51.09
2022-07-29T08:18:44.894Z,51.25
2022-07-29T08:21:14.859Z,50.65
2022-07-29T08:23:57.633Z,50.07
2022-07-29T08:26:27.383Z,48.40
2022-07-29T08:28:56.686Z,49.05
2022-07-29T08:31:26.640Z,48.93
2022-07-29T08:33:57.105Z,47.51
2022-07-29T08:36:25.919Z,46.99
2022-07-29T08:38:54.561Z,46.91
2022-07-29T08:41:23.458Z,46.32
2022-07-29T08:43:52.885Z,46.21
2022-07-29T08:46:22.212Z,46.35
2022-07-29T08:48:52.261Z,46.14
2022-07-29T08:51:22.107Z,45.73
2022-07-29T08:53:51.933Z,45.98
2022-07-29T08:56:21.487Z,45.07
2022-07-29T08:58:52.235Z,44.95
2022-07-29T09:01:35.814Z,45.53
2022-07-29T09:04:15.263Z,44.84
2022-07-29T09:09:17.312Z,44.20
2022-07-29T09:11:45.928Z,45.54
2022-07-29T09:14:15.348Z,44.12
2022-07-29T09:16:53.535Z,44.15
2022-07-29T09:19:25.635Z,44.19
2022-07-29T09:22:03.442Z,43.70
2022-07-29T09:24:40.711Z,43.14
2022-07-29T09:27:21.289Z,43.00
2022-07-29T09:29:58.079Z,44.22
2022-07-29T09:32:27.212Z,42.64
2022-07-29T09:35:18.939Z,41.92
2022-07-29T09:37:48.052Z,41.54
2022-07-29T09:40:18.778Z,41.47
2022-07-29T09:42:47.873Z,41.29
2022-07-29T09:45:29.470Z,42.23
2022-07-29T09:48:01.378Z,41.10
2022-07-29T09:50:42.441Z,41.81
2022-07-29T09:53:11.449Z,40.71
2022-07-29T09:55:50.774Z,40.56
2022-07-29T09:58:21.430Z,40.90
2022-07-29T10:00:51.961Z,38.68
2022-07-29T10:03:21.575Z,38.08
2022-07-29T10:06:07.508Z,38.17
2022-07-29T10:08:36.042Z,38.14
2022-07-29T10:11:12.896Z,38.23
2022-07-29T10:13:43.208Z,36.93
2022-07-29T10:16:14.045Z,37.16
2022-07-29T10:18:44.499Z,35.51
2022-07-29T10:21:35.513Z,35.57
2022-07-29T10:24:03.963Z,35.60
2022-07-29T10:26:32.815Z,35.64
2022-07-29T10:29:02.416Z,35.87
2022-07-29T10:31:45.918Z,34.76
2022-07-29T10:34:25.396Z,35.29
2022-07-29T10:37:05.892Z,34.09
2022-07-29T10:39:49.943Z,33.64
2022-07-29T10:42:29.522Z,34.82
2022-07-29T10:45:05.777Z,33.31
2022-07-29T10:47:35.356Z,33.24
2022-07-29T10:50:06.407Z,33.61
2022-07-29T10:55:37.548Z,31.16
2022-07-29T10:58:19.010Z,30.07
2022-07-29T11:00:49.655Z,31.58
2022-07-29T11:03:49.358Z,29.69
2022-07-29T11:06:26.330Z,29.93
2022-07-29T11:09:34.675Z,31.64
2022-07-29T11:12:46.992Z,31.13
2022-07-29T11:15:19.893Z,30.71
2022-07-29T11:18:08.089Z,32.14
2022-07-29T11:20:45.752Z,31.86
2022-07-29T11:26:25.523Z,31.46
2022-07-29T11:29:01.700Z,30.55
2022-07-29T11:31:43.798Z,31.71
2022-07-29T11:34:28.013Z,31.72
2022-07-29T11:37:27.679Z,30.44
2022-07-29T11:40:20.220Z,29.81
2022-07-29T11:42:53.663Z,29.28
2022-07-29T11:45:41.520Z,29.72
2022-07-29T11:48:31.812Z,29.30
2022-07-29T11:51:02.961Z,29.17
2022-07-29T11:53:32.849Z,28.72
2022-07-29T11:56:03.620Z,28.47
2022-07-29T11:58:33.046Z,29.17
2022-07-29T12:04:06.886Z,29.30
2022-07-29T12:06:35.662Z,30.23
2022-07-29T12:09:11.371Z,30.35
2022-07-29T12:11:45.102Z,29.88
2022-07-29T12:14:29.302Z,30.95
2022-07-29T12:16:58.327Z,29.43
2022-07-29T12:19:28.636Z,28.62
2022-07-29T12:22:02.210Z,28.80
2022-07-29T12:24:45.138Z,28.37
2022-07-29T12:27:18.907Z,27.71
2022-07-29T12:29:58.595Z,27.69
2022-07-29T12:32:33.690Z,27.47
2022-07-29T12:35:06.040Z,27.56
2022-07-29T12:37:41.109Z,27.44
2022-07-29T12:40:12.712Z,27.41
2022-07-29T12:42:41.832Z,26.89
2022-07-29T12:45:10.656Z,28.09
2022-07-29T12:47:53.886Z,28.93
2022-07-29T12:50:26.448Z,28.96
2022-07-29T12:52:55.137Z,27.97
2022-07-29T12:55:49.728Z,29.24
2022-07-29T12:58:32.084Z,28.38
2022-07-29T13:01:02.631Z,28.19
2022-07-29T13:03:43.442Z,27.51
2022-07-29T13:06:38.986Z,27.21
2022-07-29T13:09:10.775Z,27.15
2022-07-29T13:11:46.566Z,27.04
2022-07-29T13:14:32.738Z,27.47
2022-07-29T13:17:06.917Z,27.21
2022-07-29T13:19:38.051Z,27.47
2022-07-29T13:22:08.325Z,28.22
2022-07-29T13:24:47.655Z,27.47
2022-07-29T13:27:16.731Z,27.53
2022-07-29T13:29:45.384Z,27.05
2022-07-29T13:32:14.518Z,27.20
2022-07-29T13:34:42.899Z,26.38
2022-07-29T13:37:12.875Z,27.02
2022-07-29T13:39:41.614Z,26.62
2022-07-29T13:42:11.021Z,27.78
2022-07-29T13:44:39.775Z,27.44
2022-07-29T13:47:09.117Z,26.65
2022-07-29T13:49:37.848Z,26.65
2022-07-29T13:52:08.410Z,26.38
2022-07-29T13:54:42.270Z,26.85
2022-07-29T13:57:12.440Z,27.44
2022-07-29T13:59:41.253Z,27.16
2022-07-29T14:02:11.049Z,26.95
2022-07-29T14:04:39.879Z,27.24
2022-07-29T14:07:08.852Z,26.42
2022-07-29T14:09:41.818Z,26.67
2022-07-29T14:12:11.142Z,27.28
2022-07-29T14:14:39.648Z,26.57
2022-07-29T14:17:08.350Z,26.42
2022-07-29T14:19:38.947Z,27.08
2022-07-29T14:22:09.473Z,27.65
2022-07-29T14:24:40.957Z,27.64
2022-07-29T14:27:10.327Z,27.20
2022-07-29T14:29:39.259Z,27.33
2022-07-29T14:32:08.605Z,26.98
2022-07-29T14:34:37.691Z,26.97
2022-07-29T14:37:07.250Z,27.59
2022-07-29T14:39:42.840Z,28.12
2022-07-29T14:42:14.078Z,28.31
2022-07-29T14:44:42.937Z,28.04
2022-07-29T14:47:13.335Z,27.56
2022-07-29T14:49:41.782Z,28.08
2022-07-29T14:52:10.192Z,27.69
2022-07-29T14:54:39.051Z,27.25
2022-07-29T14:57:08.590Z,27.69
2022-07-29T14:59:38.453Z,27.73
2022-07-29T15:02:06.986Z,27.57
2022-07-29T15:04:36.378Z,27.44
2022-07-29T15:07:05.122Z,27.83
2022-07-29T15:09:33.605Z,27.35
2022-07-29T15:12:09.207Z,26.99
2022-07-29T15:14:39.290Z,26.29
2022-07-29T15:17:07.817Z,26.00
2022-07-29T15:19:36.428Z,26.59
2022-07-29T15:22:05.888Z,26.28
2022-07-29T15:24:35.139Z,25.91
2022-07-29T15:27:03.698Z,26.58
2022-07-29T15:29:32.193Z,26.94
2022-07-29T15:32:02.609Z,26.83
2022-07-29T15:34:31.367Z,27.75
2022-07-29T15:36:59.771Z,27.72
2022-07-29T15:39:28.370Z,27.42
2022-07-29T15:41:57.184Z,28.49
2022-07-29T15:44:25.874Z,27.14
2022-07-29T15:47:07.276Z,26.74
2022-07-29T15:49:48.245Z,27.50
2022-07-29T15:52:25.333Z,27.51
2022-07-29T15:54:56.184Z,27.69
2022-07-29T15:57:25.785Z,27.72
2022-07-29T15:59:54.308Z,27.88
2022-07-29T16:02:22.887Z,28.28
2022-07-29T16:04:52.993Z,28.85
2022-07-29T16:07:21.497Z,28.85
2022-07-29T16:09:53.209Z,29.41
2022-07-29T16:12:22.028Z,28.88
2022-07-29T16:14:51.276Z,29.37
2022-07-29T16:17:20.700Z,29.39
2022-07-29T16:19:49.233Z,28.78
2022-07-29T16:22:19.081Z,28.72
2022-07-29T16:24:47.561Z,29.58
2022-07-29T16:27:16.039Z,28.90
2022-07-29T16:29:46.755Z,29.16
2022-07-29T16:32:15.230Z,29.75
2022-07-29T16:34:50.716Z,30.00
2022-07-29T16:37:20.565Z,30.34
2022-07-29T16:39:48.964Z,30.42
2022-07-29T16:42:36.909Z,30.39
2022-07-29T16:45:06.678Z,30.79
2022-07-29T16:47:35.201Z,30.93
2022-07-29T16:50:03.933Z,31.36
2022-07-29T16:52:33.763Z,30.81
2022-07-29T16:55:02.177Z,31.16
2022-07-29T16:57:30.710Z,31.57
2022-07-29T16:59:59.381Z,31.32
2022-07-29T17:02:28.008Z,31.50
2022-07-29T17:04:56.653Z,31.04
2022-07-29T17:07:25.076Z,31.44
2022-07-29T17:09:56.374Z,31.53
2022-07-29T17:12:27.589Z,31.89
2022-07-29T17:14:56.029Z,32.15
2022-07-29T17:17:38.563Z,32.47
2022-07-29T17:20:09.421Z,32.06
2022-07-29T17:22:38.372Z,32.64
2022-07-29T17:25:10.030Z,32.22
2022-07-29T17:27:38.496Z,32.15
2022-07-29T17:30:08.364Z,31.46
2022-07-29T17:32:38.765Z,31.92
2022-07-29T17:35:29.613Z,31.75
2022-07-29T17:37:58.188Z,32.45
2022-07-29T17:40:28.005Z,32.40
2022-07-29T17:42:56.433Z,32.44
2022-07-29T17:45:24.896Z,32.71
2022-07-29T17:47:53.611Z,32.79
2022-07-29T17:50:22.143Z,32.08
2022-07-29T17:52:50.575Z,32.66
2022-07-29T17:55:19.141Z,32.31
2022-07-29T17:57:49.027Z,32.61
2022-07-29T18:00:17.786Z,32.95
2022-07-29T18:02:46.600Z,33.02
2022-07-29T18:05:15.855Z,32.91
2022-07-29T18:07:44.303Z,32.67
2022-07-29T18:10:12.880Z,33.06
2022-07-29T18:12:41.442Z,32.95
2022-07-29T18:15:11.971Z,34.11
2022-07-29T18:17:56.417Z,33.18
2022-07-29T18:20:26.890Z,33.85
2022-07-29T18:22:55.388Z,33.84
2022-07-29T18:25:23.937Z,33.70
2022-07-29T18:27:55.245Z,33.60
2022-07-29T18:30:27.111Z,33.70
2022-07-29T18:33:19.753Z,33.79
2022-07-29T18:35:44.515Z,34.01
2022-07-29T18:38:13.025Z,33.86
2022-07-29T18:40:42.229Z,34.04
2022-07-29T18:43:10.668Z,34.16
2022-07-29T18:45:40.695Z,34.33
2022-07-29T18:48:12.703Z,34.55
2022-07-29T18:50:42.320Z,34.33
2022-07-29T18:53:10.805Z,34.07
2022-07-29T18:55:39.286Z,34.71
2022-07-29T18:58:09.129Z,34.76
2022-07-29T19:00:37.568Z,34.98
2022-07-29T19:03:07.505Z,34.86
2022-07-29T19:05:36.107Z,34.82
2022-07-29T19:08:04.766Z,35.08
2022-07-29T19:10:33.637Z,35.33
2022-07-29T19:13:02.121Z,34.95
2022-07-29T19:15:30.564Z,35.18
2022-07-29T19:18:01.327Z,35.59
2022-07-29T19:20:31.465Z,35.30
2022-07-29T19:23:00.025Z,35.47
2022-07-29T19:25:28.569Z,35.48
2022-07-29T19:27:58.505Z,35.86
2022-07-29T19:30:27.745Z,35.94
2022-07-29T19:32:56.218Z,36.13
2022-07-29T19:35:32.124Z,36.27
2022-07-29T19:38:03.273Z,36.22
2022-07-29T19:40:31.945Z,36.42
2022-07-29T19:43:01.005Z,36.60
2022-07-29T19:45:30.386Z,36.70
2022-07-29T19:48:01.550Z,36.58
2022-07-29T19:50:30.417Z,36.53
2022-07-29T19:52:59.215Z,37.21
2022-07-29T19:55:29.190Z,37.48
2022-07-29T19:57:58.935Z,37.43
2022-07-29T20:00:28.746Z,37.61
2022-07-29T20:02:59.575Z,37.51
2022-07-29T20:05:28.430Z,37.66
2022-07-29T20:07:57.303Z,37.51
2022-07-29T20:10:26.237Z,37.69
2022-07-29T20:12:56.060Z,38.38
2022-07-29T20:15:24.995Z,38.00
2022-07-29T20:17:57.157Z,38.45
2022-07-29T20:20:27.082Z,38.38
2022-07-29T20:22:55.806Z,38.50
2022-07-29T20:25:25.006Z,38.44
2022-07-29T20:27:54.485Z,38.57
2022-07-29T20:30:25.049Z,38.64
2022-07-29T20:32:53.654Z,38.45
2022-07-29T20:35:22.951Z,38.72
2022-07-29T20:37:55.905Z,38.61
2022-07-29T20:40:26.016Z,39.07
2022-07-29T20:42:54.682Z,39.11
2022-07-29T20:45:25.057Z,39.29
2022-07-29T20:47:53.759Z,38.86
2022-07-29T20:50:24.495Z,39.67
2022-07-29T20:52:53.605Z,39.31
2022-07-29T20:55:22.607Z,39.08
2022-07-29T20:57:51.193Z,39.97
2022-07-29T21:00:19.751Z,39.93
2022-07-29T21:02:49.907Z,39.93
2022-07-29T21:05:18.505Z,39.99
2022-07-29T21:07:47.140Z,39.83
2022-07-29T21:10:18.345Z,39.56
2022-07-29T21:12:47.506Z,40.14
2022-07-29T21:15:18.605Z,40.50
2022-07-29T21:17:48.026Z,40.26
2022-07-29T21:20:20.641Z,40.06
2022-07-29T21:22:49.244Z,40.20
2022-07-29T21:25:18.504Z,40.29
2022-07-29T21:28:06.803Z,40.13
2022-07-29T21:30:35.466Z,40.65
2022-07-29T21:33:04.563Z,40.11
2022-07-29T21:38:23.581Z,40.34
2022-07-29T21:40:53.421Z,40.21
2022-07-29T21:43:22.580Z,40.16
2022-07-29T21:45:51.390Z,40.39
2022-07-29T21:48:21.078Z,40.94
2022-07-29T21:50:52.363Z,40.23
2022-07-29T21:53:22.866Z,41.01
2022-07-29T21:55:51.845Z,40.37
2022-07-29T21:58:22.948Z,40.19
2022-07-29T22:00:51.517Z,40.39
2022-07-29T22:03:20.326Z,40.80
2022-07-29T22:05:50.201Z,40.86
2022-07-29T22:08:21.616Z,41.05
2022-07-29T22:10:50.244Z,40.65
2022-07-29T22:13:18.834Z,41.19
2022-07-29T22:15:47.422Z,40.85
2022-07-29T22:18:20.621Z,41.16
2022-07-29T22:20:51.360Z,41.15
2022-07-29T22:23:19.944Z,40.70
2022-07-29T22:25:48.417Z,41.15
2022-07-29T22:28:16.903Z,40.69
2022-07-29T22:30:45.323Z,40.86
2022-07-29T22:33:17.686Z,41.24
2022-07-29T22:35:48.989Z,40.65
2022-07-29T22:38:19.549Z,40.90
2022-07-29T22:40:50.734Z,40.90
2022-07-29T22:43:19.323Z,41.22
2022-07-29T22:45:47.891Z,41.11
2022-07-29T22:48:16.475Z,41.31
2022-07-29T22:50:44.925Z,41.68
2022-07-29T22:53:13.466Z,41.87
2022-07-29T22:55:43.216Z,41.45
2022-07-29T22:58:12.088Z,41.87
2022-07-29T23:00:41.200Z,42.16
2022-07-29T23:03:09.937Z,42.15
2022-07-29T23:05:38.489Z,42.29
2022-07-29T23:08:07.015Z,42.09
2022-07-29T23:10:35.585Z,42.49
2022-07-29T23:13:05.413Z,42.27
2022-07-29T23:15:33.886Z,42.87
2022-07-29T23:18:02.434Z,42.70
2022-07-29T23:20:31.012Z,43.17
2022-07-29T23:22:59.481Z,42.97
2022-07-29T23:25:27.997Z,43.00
2022-07-29T23:27:56.439Z,43.37
2022-07-29T23:30:26.689Z,43.12
2022-07-29T23:32:55.478Z,43.21
2022-07-29T23:35:25.265Z,44.16
2022-07-29T23:37:53.919Z,44.02
2022-07-29T23:40:22.388Z,43.91
2022-07-29T23:42:50.860Z,44.18
2022-07-29T23:45:19.701Z,43.78
2022-07-29T23:47:49.505Z,44.54
2022-07-29T23:50:17.908Z,43.96
2022-07-29T23:52:46.374Z,44.50
2022-07-29T23:55:36.372Z,44.54
2022-07-29T23:58:04.231Z,44.71
